Search for airport 
image banner adimage banner adimage banner ad
image banner ad

NV02 - O'toole Ranch

Located in Austin, United States

ICAO - NV02, IATA -

Data provided by Airmate  

General information

Coordinates: N39°3'60" W117°25'18"
Elevation is 6520 feet MSL.
Magnetic variation is 15° East
View others Airports in Nevada

Operational data

Special qualification required
Current time UTC:
Current local time:
Weather at : KTMT - Austin ( 49 km )
METAR: KTMT 130155Z AUTO 35004KT 10SM CLR 30/M02 A3002 RMK AO2 T02961025
View NOTAMs / SUP AIP / TFR affecting this airport [VIEW]
Communications frequencies: [VIEW]

Runways:

RWY identifierQFULength (ft)Width (ft)SurfaceLDA (ft)
07400040EARTH
25400040EARTH

Airport contact information

Address: Austin United States

Satellite view of NV02